x

9442396 - La Push, Wa (lapw1) Weather Station

2:36 - Wed 22nd Feb 2017 All times are PST. -8 hours from GMT.

  • Wind
    8mph, 9mph gusts
  • Sea Temp 43°f
  • Aire Temp 34°f
  • Sea Pressure 1022.3mb
  • 9442396 - La Push, Wa
  • 9442396 - La Push, Wa

More Historic Weather Station data

Upgrade to MSW Pro to gain access to the past 30 days of data for over 8000 Wavebouys and Weather Stations around the globe.

Join Pro

Comparision Forecast

View Surf forecast
   
mié 02/22 2:36 8 9 mph 1022.3mb 43f 34f
2:30 7 8 mph 1022.3mb 43f 34f
2:24 7 8 mph 1022.3mb 43f 34f
2:18 7 9 mph 1022.3mb 43f 35f
2:12 7 8 mph 1022.3mb 43f 35f
2:06 5 6 mph 1022.3mb 43f 35f
2:00 3 7 mph 1022.3mb 43f 36f
1:36 13 20 mph 1022.6mb 43f 35f
1:30 7 11 mph 1022.3mb 43f 34f
1:24 7 10 mph 1022.3mb 43f 35f
1:18 3 9 mph 1022.2mb 44f 35f
1:12 6 8 mph 1022.2mb 44f 35f
1:06 6 7 mph 1022.1mb 44f 36f
1:00 5 11 mph 1022mb 44f 39f
12:36 8 9 mph 1021.9mb 46f 35f
12:30 6 8 mph 1021.9mb 46f 35f
12:24 7 9 mph 1021.9mb 46f 36f
12:18 6 8 mph 1021.8mb 47f 36f
12:12 5 7 mph 1021.8mb 46f 36f
12:06 6 8 mph 1021.7mb 46f 36f
12:00 6 7 mph 1021.7mb 47f 36f
mar 02/21 11:36 6 7 mph 1021.6mb 47f 36f
11:30 5 7 mph 1021.5mb 47f 37f
11:24 6 7 mph 1021.5mb 47f 37f
11:18 3 6 mph 1021.5mb 47f 37f
11:12 5 6 mph 1021.4mb 47f 38f
11:06 5 7 mph 1021.4mb 47f 37f
11:00 2 3 mph 1021.3mb 47f 37f
10:36 5 10 mph 1021.2mb 47f 37f
10:30 5 7 mph 1021.2mb 47f 38f
10:24 6 7 mph 1021.2mb 47f 39f
10:18 3 5 mph 1021.2mb 47f 40f
10:12 3 6 mph 1021.1mb 47f 42f
10:06 3 8 mph 1021.1mb 47f 42f
10:00 14 17 mph 1021.3mb 47f 42f
9:36 3 10 mph 1020.8mb 47f 44f
9:30 8 10 mph 1020.9mb 47f 44f
9:24 8 10 mph 1020.8mb 47f 44f
9:18 7 18 mph 1020.8mb 47f 44f
9:12 14 17 mph 1020.9mb 47f 44f
9:06 10 14 mph 1020.5mb 47f 44f
9:00 11 17 mph 1020.5mb 47f 44f
8:36 14 20 mph 1020.3mb 47f 44f
8:30 10 14 mph 1020.3mb 46f 45f
8:24 11 14 mph 1020.1mb 46f 45f
8:18 11 16 mph 1020.1mb 46f 45f
8:12 10 14 mph 1020.1mb 46f 45f
8:06 9 14 mph 1020.1mb 46f 45f
8:00 10 14 mph 1020.1mb 46f 45f
7:36 13 16 mph 1020mb 46f 45f
7:30 11 15 mph 1019.9mb 45f 45f
7:24 11 15 mph 1019.9mb 45f 45f
7:18 11 14 mph 1019.8mb 45f 45f
7:12 13 16 mph 1019.8mb 44f 45f
7:06 14 16 mph 1019.9mb 44f 45f
7:00 13 17 mph 1019.8mb 43f 45f
6:36 13 15 mph 1019.6mb 43f 45f
6:30 10 14 mph 1019.4mb 43f 45f
6:24 10 14 mph 1019.2mb 43f 45f
6:18 11 14 mph 1019.2mb 42f 44f
6:12 6 8 mph 1019.1mb 43f 44f
6:06 3 6 mph 1019mb 43f 44f
6:00 5 6 mph 1019mb 42f 44f
5:36 10 16 mph 1018.9mb 42f 43f
5:30 15 23 mph 1018.8mb 42f 43f
5:24 18 22 mph 1018.9mb 42f 45f
5:18 14 15 mph 1018.6mb 42f 45f
5:12 11 16 mph 1018.6mb 42f 45f
5:06 15 18 mph 1018.6mb 42f 45f
5:00 15 20 mph 1018.5mb 42f 45f
4:36 14 17 mph 1018.3mb 42f 46f
4:30 13 15 mph 1018.2mb 42f 46f
4:24 10 15 mph 1018.3mb 42f 46f
4:18 14 16 mph 1018.3mb 42f 46f
4:12 14 17 mph 1018.2mb 42f 46f
4:06 16 18 mph 1018.1mb 42f 46f
4:00 14 17 mph 1018.1mb 42f 46f
3:36 11 14 mph 1017.7mb 42f 45f
3:30 10 14 mph 1017.6mb 42f 45f
3:24 9 13 mph 1017.5mb 42f 45f
3:18 11 13 mph 1017.4mb 42f 45f
3:12 10 16 mph 1017.3mb 42f 46f
3:06 11 16 mph 1017.3mb 42f 45f
3:00 14 17 mph 1017.2mb 42f 45f
2:36 15 18 mph 1016.8mb 42f 45f
2:30 14 17 mph 1016.7mb 42f 45f
2:24 15 17 mph 1016.5mb 42f 45f
2:18 17 20 mph 1016.4mb 42f 45f
2:12 16 20 mph 1016.4mb 42f 45f
2:06 16 18 mph 1016.3mb 42f 45f
2:00 16 20 mph 1016.2mb 42f 45f
1:36 16 20 mph 1016mb 42f 45f
1:30 14 20 mph 1015.9mb 42f 45f
1:24 18 23 mph 1015.9mb 42f 45f
1:18 16 18 mph 1015.9mb 42f 45f
1:12 17 21 mph 1015.9mb 42f 45f
1:06 18 21 mph 1015.9mb 41f 45f
1:00 16 21 mph 1015.8mb 41f 45f
12:36 17 22 mph 1015.7mb 42f 45f
12:30 17 22 mph 1015.7mb 42f 45f
12:24 18 22 mph 1015.6mb 42f 45f
12:18 17 23 mph 1015.7mb 42f 45f
12:12 18 23 mph 1015.6mb 42f 45f
12:06 18 23 mph 1015.6mb 42f 45f
12:00 18 21 mph 1015.5mb 42f 45f
11:36 20 23 mph 1015.2mb 43f 45f
11:30 21 24 mph 1015.2mb 43f 45f
11:24 17 23 mph 1015.1mb 43f 45f
11:18 18 24 mph 1015mb 43f 45f
11:12 17 21 mph 1014.8mb 44f 45f
11:06 20 22 mph 1014.6mb 44f 45f
11:00 20 23 mph 1014.5mb 44f 45f
10:36 17 22 mph 1014mb 45f 45f
10:30 14 18 mph 1013.9mb 46f 44f
10:24 15 20 mph 1013.8mb 46f 44f
10:18 16 20 mph 1013.7mb 46f 44f
10:12 15 22 mph 1013.6mb 46f 44f
10:06 14 21 mph 1013.4mb 46f 44f
10:00 17 22 mph 1013.3mb 46f 44f
9:36 14 18 mph 1012.8mb 46f 44f
9:30 14 18 mph 1012.7mb 46f 44f
9:24 15 18 mph 1012.6mb 46f 44f
9:18 16 18 mph 1012.4mb 46f 44f
9:12 15 18 mph 1012.3mb 46f 44f
9:06 14 20 mph 1012.1mb 46f 44f
9:00 15 17 mph 1012mb 46f 43f
8:36 6 8 mph 1011.5mb 46f 40f
8:30 5 6 mph 1011.4mb 46f 40f
8:24 3 6 mph 1011.3mb 46f 40f
8:18 5 9 mph 1011.1mb 46f 39f
8:12 3 7 mph 1011mb 46f 39f
8:06 3 6 mph 1010.9mb 46f 39f
8:00 2 5 mph 1010.8mb 46f 39f
7:36 2 5 mph 1010.2mb 47f 39f
7:30 3 5 mph 1010mb 47f 39f
7:24 3 5 mph 1009.9mb 47f 39f
7:18 3 7 mph 1009.7mb 46f 39f
7:12 3 7 mph 1009.6mb 46f 38f
7:06 3 8 mph 1009.6mb 46f 38f
7:00 3 6 mph 1009.5mb 46f 38f
6:36 1 5 mph 1009.2mb 46f 36f
6:30 3 6 mph 1009.1mb 46f 38f
6:24 3 7 mph 1009mb 46f 38f
6:18 5 7 mph 1008.9mb 46f 38f
6:12 3 9 mph 1008.8mb 46f 38f
6:06 5 7 mph 1008.7mb 46f 38f
6:00 5 6 mph 1008.7mb 46f 35f
5:36 1 2 mph 1008.4mb 46f 33f
5:30 2 5 mph 1008.3mb 46f 32f
5:24  -  2 mph 1008.2mb 46f 31f
5:18 1 3 mph 1008.1mb 46f 32f
5:12 2 5 mph 1008mb 46f 32f
5:06 3 5 mph 1008mb 46f 32f
5:00 3 5 mph 1007.9mb 46f 32f
4:36 5 8 mph 1007.7mb 46f 32f
4:30 6 7 mph 1007.6mb 46f 32f
4:24 7 8 mph 1007.6mb 46f 32f
4:18 5 8 mph 1007.5mb 46f 32f
4:12 5 8 mph 1007.4mb 46f 32f
4:06 5 6 mph 1007.4mb 46f 33f
4:00 6 7 mph 1007.3mb 46f 33f
3:36 6 9 mph 1007.2mb 45f 33f
3:30 6 7 mph 1007.2mb 45f 33f
3:24 6 8 mph 1007.3mb 44f 33f
3:18 6 8 mph 1007.2mb 44f 33f
3:12 7 8 mph 1007.3mb 44f 33f
3:06 5 7 mph 1007.3mb 43f 33f
3:00 3 6 mph 1007.4mb 43f 33f
2:54 6
mph
1007.5mb 43f 33f
2:48 5 7 mph 1007.5mb 43f 33f
2:36 5
mph
1007.6mb 43f 33f
2:30 3 5 mph 1007.6mb 43f 33f
2:24 3 5 mph 1007.6mb 43f 33f
2:18 3 5 mph 1007.6mb 43f 34f
2:12 5 6 mph 1007.5mb 43f 34f
2:06 5 7 mph 1007.5mb 43f 34f
2:00 6 8 mph 1007.5mb 43f 34f
1:54 6 9 mph 1007.5mb 43f 34f
1:48 6 7 mph 1007.6mb 43f 33f
1:36 6
mph
1007.4mb 43f 34f
1:30 3 5 mph 1007.3mb 43f 34f
1:24 2
mph
1007.3mb 43f 34f
1:18 3 6 mph 1007.2mb 43f 35f
1:12 5 6 mph 1007.2mb 43f 35f
1:06 6 7 mph 1007.1mb 43f 35f
1:00 6 8 mph 1007.1mb 43f 35f
12:54 6 8 mph 1007.1mb 43f 35f
12:48 6 8 mph 1007.1mb 43f 35f
12:36 6
mph
1006.9mb 43f 35f
12:30 6 7 mph 1006.9mb 43f 35f
12:24 6 9 mph 1006.8mb 43f 35f
12:18 5 8 mph 1006.7mb 43f 35f
12:12 5 7 mph 1006.7mb 43f 35f
12:06 6 7 mph 1006.8mb 43f 36f
12:00 6 7 mph 1006.7mb 44f 36f
lun 02/20 11:54 5 7 mph 1006.7mb 44f 36f
11:48 5 6 mph 1006.6mb 44f 37f
11:36 3 5 mph 1006.5mb 44f 37f
11:30 3 5 mph 1006.5mb 45f 36f
11:24 5 6 mph 1006.5mb 45f 36f
11:18 3 6 mph 1006.7mb 45f 35f
11:12 3 5 mph 1006.9mb 45f 36f
11:06 2 5 mph 1007mb 45f 37f
11:00 3
mph
1007mb 45f 37f
10:54 2 3 mph 1007.1mb 45f 36f
10:48  -  3 mph 1007.2mb 46f 37f
10:36 2 3 mph 1007.3mb 46f 36f
10:30 1 2 mph 1007.4mb 46f 36f
10:24  -  2 mph 1007.4mb 46f 37f
10:18 2 3 mph 1007.2mb 46f 37f
10:12 2 5 mph 1007.2mb 46f 37f
10:06 3 5 mph 1007.3mb 46f 37f
10:00 2 5 mph 1007.3mb 46f 37f
9:54 3 5 mph 1007.2mb 46f 37f
9:48 3 5 mph 1007.1mb 46f 38f
9:36 3 5 mph 1006.8mb 46f 39f
9:30 3 6 mph 1006.7mb 46f 39f
9:24 5 6 mph 1006.6mb 46f 39f
9:18 3 6 mph 1006.6mb 46f 40f
9:12 3 6 mph 1006.5mb 46f 40f
9:06 5 6 mph 1006.4mb 46f 41f
9:00 5 7 mph 1006.4mb 46f 41f
8:54 5 7 mph 1006.4mb 46f 41f
8:48 6 7 mph 1006.4mb 46f 40f
8:36 2 3 mph 1006.6mb 46f 39f
8:30 1 2 mph 1006.6mb 46f 39f
8:24 2
mph
1006.6mb 46f 39f
8:18  -  1 mph 1006.6mb 46f 39f
8:12  -  2 mph 1006.6mb 46f 40f
8:06 1 2 mph 1006.5mb 46f 40f
8:00  -  2 mph 1006.5mb 46f 40f
7:54 2
mph
1006.5mb 46f 40f
7:48 2
mph
1006.5mb 46f 40f
7:36  -  2 mph 1006.5mb 46f 41f
7:30 2 3 mph 1006.5mb 46f 41f
7:24 2
mph
1006.5mb 46f 42f
7:18 2
mph
1006.4mb 46f 42f
7:12 2
mph
1006.3mb 45f 42f
7:06 2
mph
1006.3mb 45f 42f
7:00 2
mph
1006.3mb 45f 42f
6:54 2
mph
1006.3mb 45f 43f
6:48 2
mph
1006.3mb 44f 43f
6:36 2 3 mph 1006.2mb 44f 43f
6:30 2 3 mph 1006.1mb 44f 43f
6:24 2 3 mph 1006mb 44f 44f
6:18 2
mph
1006mb 43f 44f
6:12 1 2 mph 1006mb 43f 44f
6:06 1 2 mph 1006mb 43f 44f
6:00 2
mph
1005.9mb 43f 44f
5:54 2 3 mph 1005.9mb 43f 45f
5:48 3 6 mph 1005.9mb 43f 45f
5:36 2 3 mph 1005.8mb 43f 45f
5:30 2 3 mph 1005.8mb 43f 45f
5:24 2 7 mph 1005.8mb 43f 45f
5:18 5
mph
1005.8mb 43f 45f
5:12 3 8 mph 1005.7mb 43f 45f
5:06 3 9 mph 1005.7mb 43f 46f
5:00 7 13 mph 1005.7mb 43f 46f
4:54 9 11 mph 1005.7mb 43f 46f
4:48 9 13 mph 1005.6mb 43f 46f
4:36 8 11 mph 1005.5mb 43f 46f
4:30 8 10 mph 1005.5mb 43f 46f
4:24 9 11 mph 1005.4mb 43f 46f
4:18 9 11 mph 1005.3mb 43f 46f
4:12 9 14 mph 1005.2mb 43f 46f
4:06 11 14 mph 1005.2mb 43f 46f
4:00 13 14 mph 1005.2mb 43f 46f
3:54 11 14 mph 1005.1mb 43f 46f
3:48 11 14 mph 1005mb 43f 46f
3:36 11 13 mph 1004.9mb 43f 46f
3:30 11 14 mph 1004.8mb 43f 46f
3:24 11 14 mph 1004.7mb 43f 46f
3:18 11 14 mph 1004.6mb 43f 46f
3:12 11 14 mph 1004.5mb 42f 46f
3:06 13 14 mph 1004.4mb 43f 46f
3:00 11 14 mph 1004.3mb 42f 46f
2:54 11 14 mph 1004.1mb 43f 46f
2:48 10 13 mph 1004.1mb 42f 46f
2:36 10 11 mph 1003.9mb 42f 46f
2:30 9 10 mph 1003.9mb 42f 46f
2:24 9 10 mph 1003.8mb 43f 46f
2:18 7 10 mph 1003.7mb 42f 46f
2:12 8 10 mph 1003.6mb 42f 46f
2:06 9 10 mph 1003.5mb 42f 46f
2:00 8 11 mph 1003.4mb 42f 46f
1:54 8 9 mph 1003.3mb 42f 46f
1:48 8 10 mph 1003.3mb 42f 46f
1:36 8 10 mph 1003.2mb 42f 46f
1:30 8 10 mph 1003.1mb 42f 46f
1:24 8 10 mph 1003mb 42f 46f
1:18 9 11 mph 1003mb 42f 46f
1:12 8 10 mph 1002.9mb 42f 46f
1:06 8 10 mph 1002.8mb 42f 46f
1:00 9 10 mph 1002.7mb 43f 46f
12:54 8 11 mph 1002.7mb 42f 46f
12:48 9 11 mph 1002.6mb 42f 46f
12:36 10 11 mph 1002.5mb 42f 46f
12:30 7 8 mph 1002.4mb 42f 46f
12:24 7 8 mph 1002.3mb 42f 46f
12:18 7 9 mph 1002.2mb 42f 46f
12:12 7 9 mph 1002.2mb 42f 46f
12:06 8 9 mph 1002.1mb 42f 46f
12:00 7 9 mph 1002mb 42f 45f
11:54 7 9 mph 1001.8mb 42f 45f
11:48 7
mph
1001.6mb 42f 45f
11:36 7 8 mph 1001.4mb 43f 45f
11:30 6 7 mph 1001.3mb 43f 45f
11:24 6 7 mph 1001.2mb 43f 45f
11:18 7 8 mph 1001.2mb 43f 44f
11:12 6 7 mph 1001mb 43f 44f
11:06 1 2 mph 1000.9mb 43f 43f
11:00  -  mph 1000.9mb 43f 43f
10:36  -  3 mph 1000.4mb 43f 42f
10:30 1 2 mph 1000.3mb 43f 42f
10:24  -  1 mph 1000.3mb 43f 42f
10:18  -  1 mph 1000.2mb 43f 42f
10:12  -  1 mph 1000.1mb 43f 42f
10:06 2 6 mph 1000mb 44f 42f
10:00 3 8 mph 999.9mb 44f 41f
9:54 6 8 mph 999.9mb 44f 41f
9:48 7 8 mph 999.8mb 44f 41f
9:36 6 8 mph 999.7mb 44f 41f
9:30 5 7 mph 999.7mb 45f 41f
9:24 6 8 mph 999.5mb 45f 40f
9:18 6 7 mph 999.4mb 45f 40f
9:12 6 8 mph 999.4mb 45f 40f
9:06 6 8 mph 999.3mb 45f 40f
9:00 6 8 mph 999.3mb 46f 41f
8:54 6 8 mph 999.3mb 46f 41f
8:48 6 8 mph 999.2mb 46f 40f
8:36 6 8 mph 999.2mb 46f 40f
8:30 6 7 mph 999.1mb 46f 40f
8:24 5 7 mph 999.1mb 46f 40f
8:18 5 7 mph 999mb 46f 40f
8:12 5 7 mph 999mb 46f 40f
8:06 5 9 mph 999mb 46f 40f
8:00 5 7 mph 999mb 46f 40f
7:54 6 7 mph 999mb 46f 40f
7:48 5 6 mph 999mb 46f 40f
7:36 5 7 mph 998.9mb 46f 40f
7:30 5 8 mph 998.9mb 46f 40f
7:24 5 7 mph 998.9mb 46f 40f
7:18 3 6 mph 998.9mb 46f 40f
7:12 5 6 mph 999mb 46f 40f
7:06 3 7 mph 999mb 46f 40f
7:00 5 7 mph 999mb 46f 40f
6:54 5 6 mph 999.1mb 46f 40f
6:48 5 7 mph 999.1mb 46f 40f
6:36 6 7 mph 999.2mb 46f 40f
6:30 3 8 mph 999.2mb 46f 40f
6:24 5 7 mph 999.2mb 46f 40f
6:18 3 6 mph 999.2mb 46f 40f
6:12 3 8 mph 999.2mb 46f 40f
6:06 6 7 mph 999.3mb 46f 40f
6:00 5 7 mph 999.3mb 46f 40f
5:54 5 7 mph 999.3mb 46f 40f
5:48 3 6 mph 999.4mb 46f 40f
5:36 5 7 mph 999.4mb 46f 40f
5:30 3 6 mph 999.4mb 46f 40f
5:24 6 7 mph 999.4mb 46f 40f
5:18 6 7 mph 999.5mb 46f 40f
5:12 6 8 mph 999.5mb 45f 40f
5:06 5 7 mph 999.6mb 45f 40f
5:00 5 8 mph 999.6mb 45f 40f
4:54 6 8 mph 999.6mb 45f 40f
4:48 6 7 mph 999.6mb 45f 40f
4:36 5 6 mph 999.7mb 45f 40f
4:30 5 6 mph 999.8mb 45f 40f
4:24 3 6 mph 999.9mb 45f 40f
4:18 5 7 mph 1000mb 45f 40f
4:12 6 7 mph 1000mb 45f 40f
4:06 6 7 mph 1000mb 45f 40f
4:00 6 8 mph 1000.1mb 44f 40f
3:54 5 7 mph 1000.1mb 44f 40f
3:48 5 7 mph 1000.1mb 44f 40f
3:36 6 7 mph 1000.3mb 44f 40f
3:30 5 6 mph 1000.4mb 43f 40f
3:24 5 6 mph 1000.5mb 43f 40f
3:18 5 7 mph 1000.6mb 43f 40f
3:12 6 8 mph 1000.6mb 43f 40f
3:06 5 7 mph 1000.7mb 43f 40f
3:00 6 7 mph 1000.8mb 43f 40f
2:54 5 8 mph 1000.8mb 43f 40f
2:48 3 6 mph 1000.9mb 43f 40f
2:36 3 6 mph 1001.1mb 43f 40f
2:30 3 6 mph 1001.1mb 43f 40f
2:24 3 5 mph 1001.1mb 43f 40f
2:18 3 6 mph 1001.2mb 43f 40f
2:12 5 6 mph 1001.3mb 43f 41f
2:06 5 7 mph 1001.4mb 43f 41f
2:00 5 6 mph 1001.4mb 43f 41f
1:54 5 7 mph 1001.4mb 43f 41f
1:48 2 5 mph 1001.4mb 43f 41f
1:36 3 6 mph 1001.6mb 43f 41f
1:30 3 6 mph 1001.5mb 43f 41f
1:24 3 7 mph 1001.6mb 43f 41f
1:18 3 6 mph 1001.5mb 43f 41f
1:12 3 7 mph 1001.6mb 43f 41f
1:06 3 6 mph 1001.6mb 43f 41f
1:00 3 5 mph 1001.6mb 43f 41f
12:54 3 5 mph 1001.7mb 43f 41f
12:48 3 6 mph 1001.7mb 43f 41f
12:36 3 5 mph 1001.7mb 43f 41f
12:30 3 6 mph 1001.8mb 43f 41f
12:24 3 7 mph 1001.8mb 43f 41f
12:18 2 5 mph 1001.8mb 43f 41f
12:12 3 5 mph 1001.8mb 43f 41f
12:06 2 5 mph 1001.8mb 43f 41f
12:00 3 6 mph 1001.8mb 43f 42f
dom 02/19 11:54 3 5 mph 1001.8mb 43f 42f
11:48 2 5 mph 1001.8mb 43f 42f
11:36 5 6 mph 1001.9mb 43f 43f
11:30 3 6 mph 1001.9mb 43f 43f
11:24 5 6 mph 1001.9mb 43f 43f
11:18 5 6 mph 1001.8mb 43f 43f
11:12 5 8 mph 1001.8mb 43f 43f
11:06 7 9 mph 1001.7mb 43f 43f
11:00 3 6 mph 1001.7mb 43f 43f
10:54 2 3 mph 1001.6mb 43f 43f
10:48 3 7 mph 1001.6mb 43f 43f
10:36 5 10 mph 1001.6mb 43f 43f
10:30 11 16 mph 1001.6mb 43f 42f
10:24 3 6 mph 1001.4mb 43f 42f
10:18 5 6 mph 1001.3mb 43f 42f
10:12 6 8 mph 1001.3mb 43f 42f
10:06 6 7 mph 1001.2mb 43f 42f
10:00 3 5 mph 1001.1mb 43f 42f
9:54 3 5 mph 1001mb 43f 42f
9:48 2 3 mph 1001mb 43f 42f
9:36 3 6 mph 1000.9mb 43f 42f
9:30 5 6 mph 1000.9mb 43f 42f
9:24 2 5 mph 1000.8mb 44f 42f
9:18 2 3 mph 1000.8mb 44f 42f
9:12 2 5 mph 1000.7mb 44f 42f
9:06 1 2 mph 1000.7mb 44f 42f
9:00 2 5 mph 1000.6mb 44f 42f
8:54 3 5 mph 1000.5mb 44f 43f
8:48 2 3 mph 1000.4mb 44f 44f
8:36 6
mph
1000.3mb 45f 45f
8:30 6 10 mph 1000.3mb 46f 45f
8:24 7 9 mph 1000.2mb 45f 45f
8:18 6 10 mph 1000.1mb 45f 45f
8:12 7 10 mph 1000.1mb 45f 45f
8:06 9 13 mph 1000mb 45f 45f
8:00 10 14 mph 999.9mb 45f 46f
7:54 7 9 mph 999.9mb 46f 46f
7:48 7 9 mph 999.8mb 46f 46f
7:36 6 8 mph 999.6mb 46f 46f
7:30 7 8 mph 999.6mb 46f 46f
7:24 7 10 mph 999.5mb 46f 46f
7:18 8 10 mph 999.4mb 46f 46f
7:12 8 10 mph 999.3mb 46f 46f
7:06 9 11 mph 999.2mb 46f 46f
7:00 10 13 mph 999.1mb 46f 46f
6:54 10 13 mph 999mb 46f 44f
6:48 3 6 mph 998.9mb 46f 44f
6:36 5 6 mph 998.7mb 46f 44f
6:30 6 8 mph 998.6mb 46f 44f
6:24 7 10 mph 998.6mb 46f 45f
6:18 8 14 mph 998.5mb 46f 44f
6:12 6 10 mph 998.4mb 46f 45f
6:06 7 16 mph 998.3mb 46f 44f
6:00 6 10 mph 998.1mb 46f 44f
5:54 7 14 mph 997.9mb 46f 43f
5:48 3 10 mph 997.9mb 46f 43f
5:36 10 14 mph 997.7mb 45f 43f
5:30 7 11 mph 997.6mb 45f 43f
5:24 7 14 mph 997.5mb 44f 43f
5:18 7 16 mph 997.4mb 44f 42f
5:12 6 9 mph 997.3mb 44f 42f
5:06 8 14 mph 997.2mb 43f 42f
5:00 7 14 mph 997.1mb 43f 42f
4:54 6 14 mph 997mb 43f 42f
4:48 7 14 mph 996.9mb 43f 42f
4:36 5 14 mph 996.8mb 43f 43f
4:30 6 14 mph 996.7mb 43f 43f
4:24 7 14 mph 996.6mb 43f 43f
4:18 8 15 mph 996.6mb 43f 43f
4:12 9 16 mph 996.5mb 43f 43f
4:06 5 13 mph 996.4mb 43f 43f
4:00 10 17 mph 996.3mb 43f 43f
3:36 10 18 mph 995.9mb 43f 44f
3:30 8 15 mph 995.8mb 43f 44f
3:24 7 16 mph 995.7mb 43f 44f
3:18 9 15 mph 995.7mb 43f 44f
3:12 9 16 mph 995.6mb 43f 44f
3:06 10 14 mph 995.5mb 43f 44f
3:00 11 17 mph 995.4mb 43f 44f
2:54 9 16 mph 995.3mb 43f 44f
2:48 9 15 mph 995.2mb 43f 44f
2:36 10 16 mph 995.2mb 43f 44f
2:30 7 13 mph 995.1mb 43f 44f
2:24 9 16 mph 995.1mb 43f 44f
2:18 8 17 mph 994.9mb 43f 44f
2:12 10 23 mph 994.9mb 43f 44f
2:06 13 20 mph 994.8mb 43f 44f
2:00 13 24 mph 994.8mb 43f 44f
1:54 10 18 mph 994.8mb 43f 44f
1:48 10 17 mph 994.7mb 43f 43f
1:36 5 14 mph 994.6mb 43f 44f
1:30 8 16 mph 994.6mb 43f 44f
1:24 14 20 mph 994.5mb 43f 44f
1:18 13 18 mph 994.5mb 43f 44f
1:12 10 22 mph 994.5mb 43f 44f
1:06 14 23 mph 994.5mb 43f 44f
1:00 13 22 mph 994.4mb 42f 44f
12:54 10 18 mph 994.4mb 42f 44f
12:48 11 21 mph 994.3mb 42f 44f
12:36 10 22 mph 994.2mb 42f 45f
12:30 9 16 mph 994.2mb 42f 44f
12:24 10 22 mph 994.2mb 42f 44f
12:18 13 22 mph 994.1mb 42f 44f
12:12 9 18 mph 994.1mb 42f 44f
12:06 11 20 mph 994.2mb 42f 43f
12:00 7 17 mph 994.1mb 42f 43f
11:54 11 21 mph 994.1mb 42f 43f
11:48 8 20 mph 994mb 42f 43f
11:36 10 20 mph 994.1mb 42f 43f
11:30 6 18 mph 994.1mb 43f 43f
11:24 9 13 mph 994mb 42f 43f
11:18 8 16 mph 994mb 43f 43f
11:12 13 18 mph 994mb 43f 42f
11:06 8 18 mph 993.9mb 43f 42f
11:00 7 16 mph 993.8mb 43f 42f
10:54 8 15 mph 993.8mb 43f 42f
10:48 6 13 mph 993.8mb 43f 42f
10:36 7 13 mph 993.7mb 42f 42f
10:30 7 14 mph 993.6mb 42f 42f
10:24 8 14 mph 993.7mb 43f 42f
10:18 8 15 mph 993.6mb 43f 42f
10:12 8 13 mph 993.6mb 43f 42f
10:06 8 16 mph 993.7mb 43f 41f
10:00 7 11 mph 993.7mb 42f 41f
9:54 8 11 mph 993.6mb 43f 41f
9:48 9 14 mph 993.6mb 43f 42f
9:36 8 14 mph 993.4mb 43f 42f
9:30 10 15 mph 993.5mb 43f 42f
9:24 7 16 mph 993.4mb 43f 42f
9:18 6 11 mph 993.4mb 44f 42f
9:12 8 11 mph 993.4mb 44f 41f
9:06 5 13 mph 993.3mb 44f 41f
9:00 6 9 mph 993.3mb 44f 41f
8:54 6 13 mph 993.2mb 44f 40f
8:48 6 9 mph 993.3mb 44f 40f
8:36 5 8 mph 993.3mb 45f 39f
8:30 5 8 mph 993.4mb 45f 39f
8:24 5 8 mph 993.3mb 45f 39f
8:18 3 7 mph 993.4mb 46f 39f
8:12 3 7 mph 993.5mb 46f 39f
8:06 5 7 mph 993.4mb 46f 39f
8:00 5 7 mph 993.3mb 46f 39f
7:54 3 7 mph 993.3mb 46f 39f
7:48 5 7 mph 993.2mb 46f 39f
7:36 5 8 mph 993.3mb 46f 39f
7:30 5 8 mph 993.3mb 46f 39f
7:24 5 7 mph 993.3mb 46f 38f
7:18 5 7 mph 993.4mb 46f 38f
7:12 5 7 mph 993.4mb 46f 38f
7:06 5 7 mph 993.3mb 46f 38f
7:00 5 8 mph 993.3mb 46f 38f
6:54 6 7 mph 993.3mb 46f 38f
6:48 6 8 mph 993.3mb 46f 38f
6:36 3 6 mph 993.3mb 46f 38f
6:30 3 6 mph 993.3mb 47f 38f
6:24 5 6 mph 993.3mb 46f 38f
6:18 5 8 mph 993.4mb 46f 38f
6:12 5 7 mph 993.5mb 46f 38f
6:06 5 7 mph 993.5mb 46f 38f
6:00 3 8 mph 993.5mb 46f 38f
5:54 5 8 mph 993.5mb 47f 38f
5:48 5 9 mph 993.5mb 46f 38f
5:36 5 9 mph 993.4mb 46f 38f
5:30 5 7 mph 993.4mb 47f 38f
5:24 5 8 mph 993.4mb 47f 38f
5:18 5 7 mph 993.4mb 46f 38f
5:12 6 8 mph 993.4mb 46f 38f
5:06 3 8 mph 993.4mb 46f 38f
5:00 3 10 mph 993.5mb 46f 38f
4:54 3 6 mph 993.5mb 46f 38f
4:48 5 7 mph 993.5mb 47f 38f